createdAt,value
2023-03-17T00:02:27.167Z,13.73
2023-03-17T00:05:35.551Z,15.17
2023-03-17T00:08:37.869Z,15.07
2023-03-17T00:11:39.935Z,14.53
2023-03-17T00:14:42.444Z,14.87
2023-03-17T00:17:45.753Z,14.37
2023-03-17T00:20:48.544Z,15.17
2023-03-17T00:23:54.858Z,15.73
2023-03-17T00:26:58.055Z,14.40
2023-03-17T00:30:00.029Z,16.27
2023-03-17T00:33:05.082Z,15.37
2023-03-17T00:36:30.854Z,15.13
2023-03-17T00:39:33.093Z,15.20
2023-03-17T00:42:35.247Z,16.37
2023-03-17T00:45:37.751Z,16.17
2023-03-17T00:48:40.041Z,16.27
2023-03-17T00:51:42.550Z,15.43
2023-03-17T00:54:44.523Z,17.33
2023-03-17T00:57:48.576Z,17.97
2023-03-17T01:00:52.176Z,16.57
2023-03-17T01:03:54.491Z,17.77
2023-03-17T01:06:58.595Z,17.10
2023-03-17T01:10:01.224Z,18.33
2023-03-17T01:13:05.314Z,18.80
2023-03-17T01:16:10.952Z,18.03
2023-03-17T01:19:13.315Z,18.27
2023-03-17T01:22:15.680Z,18.27
2023-03-17T01:25:19.024Z,19.03
2023-03-17T01:28:21.446Z,19.03
2023-03-17T01:31:24.384Z,19.27
2023-03-17T01:34:27.161Z,18.03
2023-03-17T01:37:29.150Z,19.33
2023-03-17T01:40:34.326Z,18.13
2023-03-17T01:43:36.606Z,19.00
2023-03-17T01:46:39.075Z,18.20
2023-03-17T01:49:44.438Z,19.60
2023-03-17T01:52:48.061Z,18.47
2023-03-17T01:55:51.569Z,18.93
2023-03-17T01:58:55.292Z,18.83
2023-03-17T02:02:06.036Z,19.47
2023-03-17T02:05:11.566Z,19.37
2023-03-17T02:08:15.368Z,20.00
2023-03-17T02:11:18.312Z,19.83
2023-03-17T02:14:20.490Z,19.50
2023-03-17T02:17:24.999Z,19.40
2023-03-17T02:20:27.197Z,19.47
2023-03-17T02:23:29.584Z,20.57
2023-03-17T02:26:34.416Z,18.17
2023-03-17T02:29:37.838Z,19.23
2023-03-17T02:32:40.075Z,20.20
2023-03-17T02:35:42.568Z,19.20
2023-03-17T02:38:44.613Z,18.30
2023-03-17T02:41:47.068Z,17.60
2023-03-17T02:44:49.556Z,18.13
2023-03-17T02:47:52.534Z,18.23
2023-03-17T02:50:54.584Z,18.23
2023-03-17T02:53:56.814Z,17.53
2023-03-17T02:56:59.329Z,17.80
2023-03-17T03:00:01.822Z,17.77
2023-03-17T03:03:03.886Z,16.73
2023-03-17T03:06:06.862Z,16.97
2023-03-17T03:09:11.730Z,15.97
2023-03-17T03:12:14.025Z,16.47
2023-03-17T03:15:16.267Z,17.00
2023-03-17T03:18:18.593Z,15.47
2023-03-17T03:21:22.075Z,15.50
2023-03-17T03:24:24.422Z,16.80
2023-03-17T03:27:26.661Z,15.60
2023-03-17T03:30:29.198Z,13.83
2023-03-17T03:33:31.775Z,15.30
2023-03-17T03:36:34.097Z,16.20
2023-03-17T03:39:36.208Z,14.63
2023-03-17T03:42:38.435Z,15.53
2023-03-17T03:45:41.509Z,15.30
2023-03-17T03:48:43.811Z,14.63
2023-03-17T03:51:45.863Z,15.17
2023-03-17T03:54:48.176Z,14.73
2023-03-17T03:57:50.328Z,15.20
2023-03-17T04:00:52.600Z,15.47
2023-03-17T04:03:54.592Z,14.90
2023-03-17T04:06:56.829Z,15.13
2023-03-17T04:09:59.871Z,15.53
2023-03-17T04:13:02.215Z,15.77
2023-03-17T04:16:04.822Z,16.33
2023-03-17T04:19:07.518Z,15.50
2023-03-17T04:22:11.899Z,16.60
2023-03-17T04:25:15.418Z,16.23
2023-03-17T04:28:17.674Z,15.87
2023-03-17T04:31:20.085Z,16.00
2023-03-17T04:34:23.038Z,15.87
2023-03-17T04:37:25.786Z,15.33
2023-03-17T04:40:27.785Z,16.07
2023-03-17T04:43:30.349Z,15.13
2023-03-17T04:46:33.134Z,15.13
2023-03-17T04:49:37.555Z,15.57
2023-03-17T04:52:39.605Z,15.33
2023-03-17T04:55:42.152Z,16.63
2023-03-17T04:58:44.326Z,15.27
2023-03-17T05:01:47.189Z,14.83
2023-03-17T05:04:49.216Z,15.20
2023-03-17T05:07:51.509Z,15.23
2023-03-17T05:10:53.707Z,15.47
2023-03-17T05:13:57.081Z,16.30
2023-03-17T05:16:59.096Z,14.83
2023-03-17T05:20:01.375Z,15.57
2023-03-17T05:23:03.446Z,14.20
2023-03-17T05:26:06.475Z,15.07
2023-03-17T05:29:09.082Z,13.10
2023-03-17T05:32:11.712Z,14.10
2023-03-17T05:35:13.859Z,15.63
2023-03-17T05:38:16.451Z,15.73
2023-03-17T05:41:18.527Z,15.37
2023-03-17T05:44:20.874Z,15.57
2023-03-17T05:47:23.157Z,14.87
2023-03-17T05:50:26.194Z,16.00
2023-03-17T05:53:28.632Z,14.63
2023-03-17T05:56:33.790Z,14.33
2023-03-17T05:59:36.243Z,15.33
2023-03-17T06:02:39.682Z,14.23
2023-03-17T06:05:41.959Z,15.23
2023-03-17T06:08:44.643Z,15.47
2023-03-17T06:11:46.780Z,15.77
2023-03-17T06:14:50.332Z,15.53
2023-03-17T06:17:52.904Z,15.57
2023-03-17T06:20:55.203Z,15.00
2023-03-17T06:23:57.357Z,15.60
2023-03-17T06:26:59.910Z,15.43
2023-03-17T06:30:01.927Z,15.70
2023-03-17T06:33:04.540Z,16.97
2023-03-17T06:36:08.176Z,15.40
2023-03-17T06:39:10.975Z,15.83
2023-03-17T06:42:13.262Z,16.40
2023-03-17T06:45:16.348Z,16.27
2023-03-17T06:48:18.807Z,15.87
2023-03-17T06:51:21.242Z,15.37
2023-03-17T06:54:25.373Z,15.30
2023-03-17T06:57:27.793Z,13.80
2023-03-17T07:00:30.402Z,15.03
2023-03-17T07:03:32.805Z,14.90
2023-03-17T07:06:35.312Z,15.77
2023-03-17T07:09:37.719Z,15.40
2023-03-17T07:12:39.720Z,15.73
2023-03-17T07:15:42.709Z,15.37
2023-03-17T07:18:45.043Z,15.63
2023-03-17T07:21:47.406Z,15.33
2023-03-17T07:24:49.457Z,14.33
2023-03-17T07:27:52.008Z,14.00
2023-03-17T07:30:54.560Z,13.90
2023-03-17T07:33:57.560Z,14.67
2023-03-17T07:36:59.722Z,14.87
2023-03-17T07:40:02.330Z,14.57
2023-03-17T07:43:04.804Z,14.33
2023-03-17T07:46:07.508Z,13.77
2023-03-17T07:49:10.481Z,13.70
2023-03-17T07:52:13.032Z,13.33
2023-03-17T07:55:15.854Z,12.77
2023-03-17T07:58:18.166Z,12.73
2023-03-17T08:01:22.891Z,13.33
2023-03-17T08:04:28.471Z,12.33
2023-03-17T08:07:31.659Z,12.47
2023-03-17T08:10:35.183Z,11.60
2023-03-17T08:13:37.741Z,12.60
2023-03-17T08:16:40.101Z,12.47
2023-03-17T08:19:42.487Z,12.97
2023-03-17T08:22:44.808Z,11.97
2023-03-17T08:25:47.643Z,12.97
2023-03-17T08:28:50.348Z,12.73
2023-03-17T08:31:52.839Z,12.53
2023-03-17T08:34:55.243Z,11.40
2023-03-17T08:37:57.371Z,11.80
2023-03-17T08:41:08.097Z,11.93
2023-03-17T08:44:10.609Z,11.27
2023-03-17T08:47:12.891Z,11.87
2023-03-17T08:50:21.956Z,11.57
2023-03-17T08:53:25.137Z,13.83
2023-03-17T08:56:27.760Z,11.50
2023-03-17T08:59:30.159Z,11.03
2023-03-17T09:02:32.181Z,11.30
2023-03-17T09:05:36.949Z,10.23
2023-03-17T09:08:44.943Z,10.37
2023-03-17T09:11:47.455Z,10.50
2023-03-17T09:14:50.504Z,9.60
2023-03-17T09:17:52.747Z,10.90
2023-03-17T09:20:54.946Z,9.60
2023-03-17T09:23:57.225Z,10.63
2023-03-17T09:27:01.353Z,10.73
2023-03-17T09:30:05.437Z,11.67
2023-03-17T09:33:07.620Z,9.90
2023-03-17T09:36:16.318Z,10.23
2023-03-17T09:39:25.056Z,10.37
2023-03-17T09:42:33.421Z,11.47
2023-03-17T09:45:38.976Z,10.60
2023-03-17T09:48:57.361Z,10.67
2023-03-17T09:52:00.154Z,11.10
2023-03-17T09:55:05.996Z,10.27
2023-03-17T09:58:14.825Z,10.87
2023-03-17T10:01:17.735Z,10.73
2023-03-17T10:04:20.056Z,11.07
2023-03-17T10:08:31.226Z,11.10
2023-03-17T10:11:43.775Z,11.73
2023-03-17T10:14:59.530Z,11.90
2023-03-17T10:18:09.473Z,12.80
2023-03-17T10:21:17.908Z,11.37
2023-03-17T10:24:23.113Z,12.43
2023-03-17T10:27:26.216Z,12.80
2023-03-17T10:30:33.592Z,11.93
2023-03-17T10:33:36.484Z,13.37
2023-03-17T10:36:40.732Z,13.33
2023-03-17T10:39:47.065Z,12.03
2023-03-17T10:43:01.611Z,12.20
2023-03-17T10:46:06.429Z,11.80
2023-03-17T10:49:16.748Z,12.57
2023-03-17T10:52:23.667Z,11.50
2023-03-17T10:55:29.802Z,11.20
2023-03-17T10:58:45.794Z,11.07
2023-03-17T11:01:54.061Z,11.33
2023-03-17T11:05:22.321Z,10.73
2023-03-17T11:08:24.947Z,10.70
2023-03-17T11:11:29.859Z,10.63
2023-03-17T11:14:32.450Z,9.97
2023-03-17T11:17:43.057Z,10.67
2023-03-17T11:20:57.104Z,11.57
2023-03-17T11:24:19.593Z,11.87
2023-03-17T11:27:35.230Z,11.50
2023-03-17T11:30:50.682Z,11.77
2023-03-17T11:34:25.579Z,12.47
2023-03-17T11:37:33.318Z,12.33
2023-03-17T11:40:38.696Z,12.37
2023-03-17T11:44:01.404Z,11.87
2023-03-17T11:47:09.126Z,11.20
2023-03-17T11:50:33.853Z,12.27
2023-03-17T11:53:50.775Z,11.33
2023-03-17T11:56:59.893Z,10.80
2023-03-17T12:00:42.766Z,10.40
2023-03-17T12:04:13.001Z,10.17
2023-03-17T12:07:23.571Z,10.80
2023-03-17T12:10:40.599Z,10.10
2023-03-17T12:14:11.260Z,10.47
2023-03-17T12:17:34.907Z,9.70
2023-03-17T12:28:34.350Z,9.97
2023-03-17T12:31:52.330Z,8.97
2023-03-17T12:35:02.622Z,9.03
2023-03-17T12:38:11.511Z,10.70
2023-03-17T12:41:44.806Z,9.73
2023-03-17T12:45:28.460Z,9.80
2023-03-17T12:48:49.129Z,9.43
2023-03-17T12:51:58.178Z,9.23
2023-03-17T12:55:03.341Z,8.63
2023-03-17T12:58:26.553Z,7.50
2023-03-17T13:01:35.591Z,7.43
2023-03-17T13:04:38.698Z,7.23
2023-03-17T13:07:47.467Z,7.43
2023-03-17T13:10:50.508Z,6.37
2023-03-17T13:14:05.906Z,6.50
2023-03-17T13:17:34.737Z,6.50
2023-03-17T13:20:41.140Z,6.57
2023-03-17T13:24:06.281Z,7.00
2023-03-17T13:27:14.517Z,6.37
2023-03-17T13:30:26.890Z,6.63
2023-03-17T13:33:32.924Z,6.03
2023-03-17T13:36:54.659Z,6.50
2023-03-17T13:40:18.324Z,6.73
2023-03-17T13:43:54.074Z,6.37
2023-03-17T13:47:15.916Z,6.30
2023-03-17T13:50:32.815Z,6.07
2023-03-17T13:53:55.442Z,6.33
2023-03-17T13:57:17.928Z,6.27
2023-03-17T14:00:28.445Z,5.57
2023-03-17T14:03:50.093Z,6.10
2023-03-17T14:06:56.743Z,5.80
2023-03-17T14:10:04.165Z,5.50
2023-03-17T14:13:22.669Z,5.90
2023-03-17T14:16:32.061Z,5.90
2023-03-17T14:19:34.770Z,6.03
2023-03-17T14:22:46.013Z,5.80
2023-03-17T14:25:50.445Z,6.23
2023-03-17T14:28:53.073Z,6.57
2023-03-17T14:32:13.668Z,6.70
2023-03-17T14:35:15.832Z,6.53
2023-03-17T14:38:19.971Z,7.00
2023-03-17T14:41:44.981Z,6.43
2023-03-17T14:45:19.216Z,6.77
2023-03-17T14:48:28.876Z,7.10
2023-03-17T14:51:36.266Z,6.83
2023-03-17T14:54:38.453Z,7.20
2023-03-17T14:57:41.389Z,6.30
2023-03-17T15:00:52.573Z,6.63
2023-03-17T15:03:56.612Z,6.17
2023-03-17T15:07:01.611Z,6.70
2023-03-17T15:10:05.807Z,7.27
2023-03-17T15:13:11.883Z,6.80
2023-03-17T15:16:43.581Z,6.60
2023-03-17T15:19:52.617Z,6.23
2023-03-17T15:23:02.982Z,6.20
2023-03-17T15:26:09.910Z,6.23
2023-03-17T15:29:12.187Z,6.43
2023-03-17T15:32:17.302Z,5.73
2023-03-17T15:35:19.826Z,6.20
2023-03-17T15:38:22.209Z,7.13
2023-03-17T15:41:24.534Z,6.83
2023-03-17T15:44:27.065Z,7.13
2023-03-17T15:47:32.864Z,7.00
2023-03-17T15:50:35.272Z,6.90
2023-03-17T15:53:37.932Z,7.67
2023-03-17T15:56:39.995Z,6.83
2023-03-17T15:59:42.262Z,6.83
2023-03-17T16:02:44.745Z,6.80
2023-03-17T16:05:47.137Z,6.50
2023-03-17T16:08:50.297Z,7.30
2023-03-17T16:11:52.782Z,6.80
2023-03-17T16:14:54.807Z,7.80
2023-03-17T16:18:00.531Z,7.50
2023-03-17T16:21:04.242Z,7.73
2023-03-17T16:24:06.800Z,7.47
2023-03-17T16:27:21.701Z,7.90
2023-03-17T16:30:31.348Z,8.37
2023-03-17T16:33:40.360Z,8.80
2023-03-17T16:36:43.948Z,8.00
2023-03-17T16:39:46.038Z,7.90
2023-03-17T16:42:48.752Z,7.70
2023-03-17T16:45:52.675Z,7.60
2023-03-17T16:48:56.125Z,7.07
2023-03-17T16:51:58.216Z,7.03
2023-03-17T16:55:06.723Z,7.67
2023-03-17T16:58:16.527Z,7.60
2023-03-17T17:01:24.885Z,8.20
2023-03-17T17:04:27.517Z,8.03
2023-03-17T17:07:29.886Z,8.60
2023-03-17T17:10:34.151Z,8.87
2023-03-17T17:13:37.396Z,8.73
2023-03-17T17:16:40.926Z,9.73
2023-03-17T17:19:44.115Z,10.90
2023-03-17T17:22:46.156Z,11.63
2023-03-17T17:25:49.917Z,11.93
2023-03-17T17:28:52.082Z,10.33
2023-03-17T17:31:54.728Z,9.60
2023-03-17T17:34:56.880Z,10.00
2023-03-17T17:37:59.761Z,9.80
2023-03-17T17:41:06.940Z,10.50
2023-03-17T17:44:09.399Z,9.87
2023-03-17T17:47:12.127Z,10.57
2023-03-17T17:50:34.735Z,11.07
2023-03-17T17:53:38.257Z,11.10
2023-03-17T17:56:46.702Z,11.90
2023-03-17T17:59:48.816Z,10.73
2023-03-17T18:02:51.256Z,11.23
2023-03-17T18:05:54.488Z,10.30
2023-03-17T18:08:58.945Z,11.60
2023-03-17T18:12:01.010Z,12.63
2023-03-17T18:15:05.424Z,12.87
2023-03-17T18:18:07.959Z,14.60
2023-03-17T18:21:14.366Z,13.20
2023-03-17T18:24:17.490Z,13.67
2023-03-17T18:27:19.921Z,11.70
2023-03-17T18:30:29.199Z,12.70
2023-03-17T18:33:32.622Z,11.50
2023-03-17T18:36:37.405Z,13.13
2023-03-17T18:39:41.631Z,15.00
2023-03-17T18:42:43.815Z,12.17
2023-03-17T18:45:46.173Z,12.27
2023-03-17T18:48:48.382Z,13.00
2023-03-17T18:51:51.083Z,12.53
2023-03-17T18:54:53.098Z,13.30
2023-03-17T18:57:55.814Z,12.33
2023-03-17T19:01:05.724Z,13.47
2023-03-17T19:04:08.882Z,14.30
2023-03-17T19:07:10.904Z,14.50
2023-03-17T19:10:14.238Z,14.70
2023-03-17T19:13:16.917Z,16.07
2023-03-17T19:16:19.927Z,15.47
2023-03-17T19:19:22.209Z,15.80
2023-03-17T19:22:24.701Z,17.27
2023-03-17T19:25:27.214Z,16.37
2023-03-17T19:28:29.489Z,16.80
2023-03-17T19:31:31.589Z,16.53
2023-03-17T19:34:34.171Z,16.10
2023-03-17T19:37:38.036Z,17.43
2023-03-17T19:40:40.666Z,25.83
2023-03-17T19:43:43.314Z,17.23
2023-03-17T19:46:45.643Z,17.10
2023-03-17T19:49:48.238Z,17.77
2023-03-17T19:52:53.182Z,17.73
2023-03-17T19:55:57.013Z,17.37
2023-03-17T19:59:00.041Z,17.80
2023-03-17T20:02:02.267Z,17.10
2023-03-17T20:05:04.967Z,17.87
2023-03-17T20:08:07.896Z,17.60
2023-03-17T20:11:12.810Z,16.60
2023-03-17T20:14:14.884Z,16.67
2023-03-17T20:17:17.833Z,16.87
2023-03-17T20:20:19.992Z,17.50
2023-03-17T20:23:22.725Z,18.10
2023-03-17T20:26:25.380Z,16.53
2023-03-17T20:29:28.222Z,16.63
2023-03-17T20:32:30.348Z,20.53
2023-03-17T20:35:33.766Z,17.10
2023-03-17T20:38:38.871Z,16.17
2023-03-17T20:41:41.702Z,17.93
2023-03-17T20:44:43.681Z,17.20
2023-03-17T20:47:47.306Z,18.17
2023-03-17T20:50:50.000Z,18.73
2023-03-17T20:53:56.875Z,19.40
2023-03-17T20:56:59.258Z,20.27
2023-03-17T21:00:02.344Z,20.33
2023-03-17T21:03:04.705Z,20.67
2023-03-17T21:06:07.545Z,21.03
2023-03-17T21:09:10.739Z,22.03
2023-03-17T21:12:15.413Z,22.13
2023-03-17T21:15:18.358Z,21.77
2023-03-17T21:18:20.865Z,23.53
2023-03-17T21:21:23.534Z,22.43
2023-03-17T21:24:28.122Z,23.03
2023-03-17T21:27:30.833Z,22.13
2023-03-17T21:30:34.109Z,22.53
2023-03-17T21:33:36.657Z,21.60
2023-03-17T21:36:39.063Z,23.90
2023-03-17T21:39:45.775Z,22.60
2023-03-17T21:42:49.689Z,23.57
2023-03-17T21:45:51.838Z,22.73
2023-03-17T21:48:54.242Z,23.67
2023-03-17T21:51:56.443Z,22.60
2023-03-17T21:54:59.668Z,22.20
2023-03-17T21:58:02.418Z,22.57
2023-03-17T22:01:05.176Z,22.10
2023-03-17T22:04:07.722Z,22.33
2023-03-17T22:07:13.204Z,22.67
2023-03-17T22:10:15.742Z,21.53
2023-03-17T22:13:18.344Z,21.67
2023-03-17T22:16:21.883Z,21.70
2023-03-17T22:19:24.543Z,20.77
2023-03-17T22:22:26.624Z,20.80
2023-03-17T22:25:28.995Z,21.87
2023-03-17T22:28:31.122Z,20.77
2023-03-17T22:31:35.382Z,19.90
2023-03-17T22:34:37.728Z,19.77
2023-03-17T22:37:41.469Z,19.67
2023-03-17T22:40:43.476Z,18.37
2023-03-17T22:43:47.064Z,20.87
2023-03-17T22:46:49.104Z,18.43
2023-03-17T22:49:51.517Z,19.43
2023-03-17T22:52:53.558Z,19.50
2023-03-17T22:55:58.852Z,19.00
2023-03-17T22:59:01.916Z,18.90
2023-03-17T23:02:04.252Z,19.73
2023-03-17T23:05:07.045Z,18.83
2023-03-17T23:08:09.300Z,18.10
2023-03-17T23:11:16.104Z,18.07
2023-03-17T23:14:18.425Z,18.13
2023-03-17T23:17:20.748Z,19.20
2023-03-17T23:20:23.219Z,19.30
2023-03-17T23:23:25.258Z,18.40
2023-03-17T23:26:28.348Z,17.07
2023-03-17T23:29:30.422Z,17.90
2023-03-17T23:32:32.908Z,18.00
2023-03-17T23:35:35.820Z,18.20
2023-03-17T23:38:38.094Z,18.30
2023-03-17T23:41:40.241Z,18.67
2023-03-17T23:44:42.787Z,17.77
2023-03-17T23:47:46.679Z,18.07
2023-03-17T23:50:52.774Z,17.53
2023-03-17T23:53:55.446Z,17.90
2023-03-17T23:56:58.111Z,17.13
